Hendersonville, NC

11:27 AM EST on December 29, 2014 (GMT -0500)
Asheville Regional | Change Station
CLOSE
Current Station
Airport
Location: Asheville,
Elevation: 2169 ft
Nearby Weather Stations

Elev 2169 ft 35.43 °N, 82.54 °W | Updated 33 minutes ago

Overcast
Overcast
52 °F
Feels Like 52 °F
N
4
Wind Variable Wind from North

Today
High -- | Low -- °F
--% Chance of Precip.
Yesterday
High -- | Low -- °F
Precip. -- in
7:38 AM 5:26 PM
First Quarter, 60% visible
Pressure 30.10 in
Visibility 3.0 miles
Clouds Few 600 ft
Mostly Cloudy 2400 ft
Overcast 5500 ft
Dew Point 48 °F
Humidity 86%
Rainfall 0.34 in
Snow Depth Not available.
UV 1 out of 12
Pollen .30 out of 12
Air Quality Not available.
Flu Activity Not available.
METAR KAVL 291554Z 35003KT 3SM BR FEW006 BKN024 OVC055 11/09 A3013 RMK AO2 SLP193 T01110089

More Conditions Fewer Conditions

Pressure 30.10 in
Visibility 3.0 miles
Clouds Few 600 ft
Mostly Cloudy 2400 ft
Overcast 5500 ft
Dew Point 48 °F
Humidity 86%
Rainfall 0.34 in
Snow Depth Not available.
UV 1 out of 12
Pollen .30 out of 12
Air Quality Not available.
Flu Activity Not available.
METAR KAVL 291554Z 35003KT 3SM BR FEW006 BKN024 OVC055 11/09 A3013 RMK AO2 SLP193 T01110089

More Conditions Fewer Conditions

10-Day Weather Forecast

Almanac

Astronomy

Dec. 29, 2014 Rise Set
Actual Time
Civil Twilight
Nautical Twilight
Astronomical Twilight
Moon
Length of Visible Light
Length of Day
Tomorrow will be .
, % of the Moon is Illuminated

Today's Extremes

State Highs State Lows

Community

WunderPhotos

Upload Photos

1,781,631 photos uploaded!

WunderBlogs® & News

Nearby

Air Quality

  Air Quality AQ Index Pollutant
Not available.

Snow Depth

Station Depth Elevation

Earthquake Activity

City Distance Mag. Time & Date
Minimum magnitude displayed is 2.5.

Coastal Water Temperatures

Place Temperature

Nearby Weather Stations